createdAt,value
2023-03-16T00:05:36.607Z,1.69
2023-03-16T00:16:00.715Z,1.64
2023-03-16T00:26:22.852Z,1.58
2023-03-16T00:36:43.897Z,1.54
2023-03-16T00:47:06.696Z,1.48
2023-03-16T00:57:30.529Z,1.43
2023-03-16T01:07:52.766Z,1.38
2023-03-16T01:18:14.307Z,1.32
2023-03-16T01:28:35.776Z,1.29
2023-03-16T01:38:57.835Z,1.23
2023-03-16T01:49:25.386Z,1.18
2023-03-16T02:00:11.040Z,1.14
2023-03-16T02:10:47.910Z,1.06
2023-03-16T02:21:38.405Z,1.01
2023-03-16T02:32:00.245Z,0.96
2023-03-16T02:42:24.244Z,0.91
2023-03-16T02:52:48.745Z,0.85
2023-03-16T03:03:10.252Z,0.77
2023-03-16T03:13:32.570Z,0.71
2023-03-16T03:23:54.647Z,0.67
2023-03-16T03:34:15.895Z,0.60
2023-03-16T03:44:37.914Z,0.55
2023-03-16T03:54:59.607Z,0.51
2023-03-16T04:05:22.108Z,0.46
2023-03-16T04:15:47.166Z,0.40
2023-03-16T04:26:14.004Z,0.37
2023-03-16T04:36:42.238Z,0.34
2023-03-16T04:47:04.807Z,0.32
2023-03-16T04:57:32.488Z,0.25
2023-03-16T05:07:54.674Z,0.19
2023-03-16T05:18:16.600Z,0.12
2023-03-16T05:28:37.919Z,0.07
2023-03-16T05:39:02.954Z,0.07
2023-03-16T05:49:29.643Z,0.01
2023-03-16T05:59:53.029Z,-0.03
2023-03-16T06:10:17.336Z,-0.08
2023-03-16T06:20:38.660Z,-0.11
2023-03-16T06:31:01.244Z,-0.12
2023-03-16T06:41:27.245Z,-0.13
2023-03-16T06:51:48.739Z,-0.08
2023-03-16T07:02:13.998Z,0.02
2023-03-16T07:12:36.952Z,0.05
2023-03-16T07:22:58.852Z,0.13
2023-03-16T07:33:20.999Z,0.24
2023-03-16T07:43:44.700Z,0.34
2023-03-16T07:54:08.965Z,0.45
2023-03-16T08:04:31.583Z,0.58
2023-03-16T08:14:54.895Z,0.83
2023-03-16T08:25:21.927Z,1.09
2023-03-16T08:35:59.217Z,1.29
2023-03-16T08:46:21.637Z,1.53
2023-03-16T08:56:49.560Z,1.74
2023-03-16T09:07:11.687Z,1.91
2023-03-16T09:17:33.622Z,2.05
2023-03-16T09:27:55.973Z,2.18
2023-03-16T09:38:18.088Z,2.31
2023-03-16T09:48:40.078Z,2.48
2023-03-16T09:59:01.718Z,2.64
2023-03-16T10:09:35.193Z,2.84
2023-03-16T10:20:09.407Z,3.03
2023-03-16T10:30:36.625Z,3.20
2023-03-16T10:41:00.984Z,3.38
2023-03-16T10:51:26.551Z,3.52
2023-03-16T11:01:50.271Z,3.68
2023-03-16T11:12:30.420Z,3.82
2023-03-16T11:22:52.356Z,3.98
2023-03-16T11:33:15.548Z,4.10
2023-03-16T11:43:39.611Z,4.17
2023-03-16T11:54:11.395Z,4.22
2023-03-16T12:04:51.340Z,4.30
2023-03-16T12:15:35.107Z,4.37
2023-03-16T12:26:00.077Z,4.44
2023-03-16T12:36:43.223Z,4.54
2023-03-16T12:47:15.447Z,4.62
2023-03-16T12:57:37.579Z,4.73
2023-03-16T13:08:05.705Z,4.85
2023-03-16T13:18:35.468Z,4.91
2023-03-16T13:28:56.929Z,4.97
2023-03-16T13:39:20.995Z,5.01
2023-03-16T13:49:50.985Z,5.08
2023-03-16T14:00:25.085Z,5.07
2023-03-16T14:10:47.058Z,5.08
2023-03-16T14:21:16.754Z,5.06
2023-03-16T14:31:39.913Z,5.05
2023-03-16T14:42:05.598Z,5.04
2023-03-16T14:52:31.871Z,5.05
2023-03-16T15:03:05.274Z,5.01
2023-03-16T15:13:42.924Z,4.95
2023-03-16T15:24:04.102Z,4.91
2023-03-16T15:34:27.546Z,4.87
2023-03-16T15:44:49.105Z,4.83
2023-03-16T15:55:20.217Z,4.77
2023-03-16T16:05:41.284Z,4.81
2023-03-16T16:16:02.826Z,4.82
2023-03-16T16:26:51.961Z,4.78
2023-03-16T16:37:15.363Z,4.75
2023-03-16T16:47:36.947Z,4.68
2023-03-16T16:57:58.231Z,4.54
2023-03-16T17:08:20.161Z,4.45
2023-03-16T17:18:41.766Z,4.34
2023-03-16T17:29:28.321Z,4.26
2023-03-16T17:39:49.701Z,4.17
2023-03-16T17:50:31.836Z,4.08
2023-03-16T18:00:57.582Z,4.03
2023-03-16T18:11:29.872Z,3.96
2023-03-16T18:21:53.777Z,3.90
2023-03-16T18:32:26.290Z,3.85
2023-03-16T18:42:47.811Z,3.78
2023-03-16T18:53:14.128Z,3.74
2023-03-16T19:03:39.533Z,3.73
2023-03-16T19:14:00.588Z,3.73
2023-03-16T19:24:26.978Z,3.67
2023-03-16T19:34:48.673Z,3.65
2023-03-16T19:45:31.791Z,3.59
2023-03-16T19:55:54.088Z,3.54
2023-03-16T20:06:19.195Z,3.50
2023-03-16T20:16:41.076Z,3.42
2023-03-16T20:27:03.549Z,3.37
2023-03-16T20:37:27.371Z,3.29
2023-03-16T20:47:49.125Z,3.18
2023-03-16T20:58:25.748Z,3.13
2023-03-16T21:08:46.931Z,3.06
2023-03-16T21:19:20.050Z,3.04
2023-03-16T21:29:41.047Z,2.95
2023-03-16T21:40:02.176Z,2.87
2023-03-16T21:50:26.688Z,2.80
2023-03-16T22:00:48.360Z,2.72
2023-03-16T22:11:16.566Z,2.63
2023-03-16T22:21:38.511Z,2.60
2023-03-16T22:32:04.616Z,2.54
2023-03-16T22:42:29.321Z,2.41
2023-03-16T22:52:51.917Z,2.33
2023-03-16T23:03:17.190Z,2.27
2023-03-16T23:13:38.818Z,2.19
2023-03-16T23:24:03.851Z,2.12
2023-03-16T23:34:26.778Z,2.08
2023-03-16T23:44:47.801Z,2.02
2023-03-16T23:55:13.586Z,1.99
